sensor_id;sensor_type;location;lat;lon;timestamp;P1;durP1;ratioP1;P2;durP2;ratioP2
17854;SDS011;9053;53.358;6.382;2022-07-24T00:02:03;4.10;;;2.97;;
17854;SDS011;9053;53.358;6.382;2022-07-24T00:04:33;3.75;;;3.45;;
17854;SDS011;9053;53.358;6.382;2022-07-24T00:07:03;3.53;;;3.08;;
17854;SDS011;9053;53.358;6.382;2022-07-24T00:09:32;3.88;;;3.45;;
17854;SDS011;9053;53.358;6.382;2022-07-24T00:12:05;4.05;;;3.65;;
17854;SDS011;9053;53.358;6.382;2022-07-24T00:14:35;3.55;;;3.17;;
17854;SDS011;9053;53.358;6.382;2022-07-24T00:17:05;3.63;;;3.33;;
17854;SDS011;9053;53.358;6.382;2022-07-24T00:19:34;3.95;;;3.00;;
17854;SDS011;9053;53.358;6.382;2022-07-24T00:22:04;4.93;;;3.20;;
17854;SDS011;9053;53.358;6.382;2022-07-24T00:24:34;3.35;;;3.05;;
17854;SDS011;9053;53.358;6.382;2022-07-24T00:27:06;4.22;;;3.30;;
17854;SDS011;9053;53.358;6.382;2022-07-24T00:29:36;3.10;;;2.80;;
17854;SDS011;9053;53.358;6.382;2022-07-24T00:32:06;4.22;;;3.08;;
17854;SDS011;9053;53.358;6.382;2022-07-24T00:34:36;4.13;;;3.38;;
17854;SDS011;9053;53.358;6.382;2022-07-24T00:37:06;5.18;;;3.22;;
17854;SDS011;9053;53.358;6.382;2022-07-24T00:39:35;3.38;;;2.83;;
17854;SDS011;9053;53.358;6.382;2022-07-24T00:42:08;4.15;;;3.03;;
17854;SDS011;9053;53.358;6.382;2022-07-24T00:44:38;3.38;;;3.08;;
17854;SDS011;9053;53.358;6.382;2022-07-24T00:47:08;4.20;;;3.10;;
17854;SDS011;9053;53.358;6.382;2022-07-24T00:49:39;2.90;;;2.60;;
17854;SDS011;9053;53.358;6.382;2022-07-24T00:52:08;3.40;;;3.10;;
17854;SDS011;9053;53.358;6.382;2022-07-24T00:54:38;3.70;;;3.20;;
17854;SDS011;9053;53.358;6.382;2022-07-24T00:57:11;3.08;;;2.78;;
17854;SDS011;9053;53.358;6.382;2022-07-24T00:59:40;4.72;;;3.10;;
17854;SDS011;9053;53.358;6.382;2022-07-24T01:02:10;3.30;;;3.00;;
17854;SDS011;9053;53.358;6.382;2022-07-24T01:04:40;3.65;;;3.10;;
17854;SDS011;9053;53.358;6.382;2022-07-24T01:07:13;3.05;;;2.75;;
17854;SDS011;9053;53.358;6.382;2022-07-24T01:09:43;3.95;;;3.10;;
17854;SDS011;9053;53.358;6.382;2022-07-24T01:12:16;2.90;;;2.70;;
17854;SDS011;9053;53.358;6.382;2022-07-24T01:14:46;3.35;;;3.05;;
17854;SDS011;9053;53.358;6.382;2022-07-24T01:17:17;4.18;;;3.78;;
17854;SDS011;9053;53.358;6.382;2022-07-24T01:19:46;4.75;;;3.33;;
17854;SDS011;9053;53.358;6.382;2022-07-24T01:22:19;3.47;;;3.00;;
17854;SDS011;9053;53.358;6.382;2022-07-24T01:24:49;3.50;;;3.20;;
17854;SDS011;9053;53.358;6.382;2022-07-24T01:27:18;3.30;;;3.00;;
17854;SDS011;9053;53.358;6.382;2022-07-24T01:29:49;3.05;;;2.75;;
17854;SDS011;9053;53.358;6.382;2022-07-24T01:32:20;3.67;;;2.88;;
17854;SDS011;9053;53.358;6.382;2022-07-24T01:34:49;3.25;;;2.92;;
17854;SDS011;9053;53.358;6.382;2022-07-24T01:37:22;3.15;;;2.80;;
17854;SDS011;9053;53.358;6.382;2022-07-24T01:39:51;3.70;;;3.35;;
17854;SDS011;9053;53.358;6.382;2022-07-24T01:42:21;3.35;;;3.05;;
17854;SDS011;9053;53.358;6.382;2022-07-24T01:44:52;3.05;;;2.75;;
17854;SDS011;9053;53.358;6.382;2022-07-24T01:47:21;3.10;;;2.72;;
17854;SDS011;9053;53.358;6.382;2022-07-24T01:49:51;3.17;;;2.92;;
17854;SDS011;9053;53.358;6.382;2022-07-24T01:52:23;4.35;;;3.63;;
17854;SDS011;9053;53.358;6.382;2022-07-24T01:54:54;3.80;;;3.50;;
17854;SDS011;9053;53.358;6.382;2022-07-24T01:57:24;3.33;;;3.03;;
17854;SDS011;9053;53.358;6.382;2022-07-24T01:59:55;3.30;;;3.00;;
17854;SDS011;9053;53.358;6.382;2022-07-24T02:02:25;3.50;;;3.20;;
17854;SDS011;9053;53.358;6.382;2022-07-24T02:04:56;5.63;;;3.20;;
17854;SDS011;9053;53.358;6.382;2022-07-24T02:07:28;5.32;;;3.35;;
17854;SDS011;9053;53.358;6.382;2022-07-24T02:09:58;3.85;;;3.45;;
17854;SDS011;9053;53.358;6.382;2022-07-24T02:12:28;3.55;;;3.22;;
17854;SDS011;9053;53.358;6.382;2022-07-24T02:14:57;5.85;;;4.60;;
17854;SDS011;9053;53.358;6.382;2022-07-24T02:17:27;3.65;;;3.35;;
17854;SDS011;9053;53.358;6.382;2022-07-24T02:19:57;3.50;;;3.15;;
17854;SDS011;9053;53.358;6.382;2022-07-24T02:22:29;4.00;;;3.70;;
17854;SDS011;9053;53.358;6.382;2022-07-24T02:25:00;3.85;;;3.45;;
17854;SDS011;9053;53.358;6.382;2022-07-24T02:27:30;3.40;;;3.10;;
17854;SDS011;9053;53.358;6.382;2022-07-24T02:29:59;3.65;;;3.35;;
17854;SDS011;9053;53.358;6.382;2022-07-24T02:32:29;4.45;;;4.05;;
17854;SDS011;9053;53.358;6.382;2022-07-24T02:34:59;4.13;;;3.75;;
17854;SDS011;9053;53.358;6.382;2022-07-24T02:37:35;4.20;;;3.83;;
17854;SDS011;9053;53.358;6.382;2022-07-24T02:40:08;3.53;;;3.22;;
17854;SDS011;9053;53.358;6.382;2022-07-24T02:42:39;4.10;;;3.75;;
17854;SDS011;9053;53.358;6.382;2022-07-24T02:45:10;4.40;;;3.70;;
17854;SDS011;9053;53.358;6.382;2022-07-24T02:47:46;3.50;;;3.20;;
17854;SDS011;9053;53.358;6.382;2022-07-24T02:50:17;3.80;;;3.50;;
17854;SDS011;9053;53.358;6.382;2022-07-24T02:52:51;4.25;;;3.67;;
17854;SDS011;9053;53.358;6.382;2022-07-24T02:55:21;4.55;;;4.00;;
17854;SDS011;9053;53.358;6.382;2022-07-24T02:57:52;4.68;;;3.72;;
17854;SDS011;9053;53.358;6.382;2022-07-24T03:00:22;4.40;;;3.55;;
17854;SDS011;9053;53.358;6.382;2022-07-24T03:02:52;3.83;;;3.25;;
17854;SDS011;9053;53.358;6.382;2022-07-24T03:05:22;4.72;;;3.80;;
17854;SDS011;9053;53.358;6.382;2022-07-24T03:07:54;3.90;;;3.60;;
17854;SDS011;9053;53.358;6.382;2022-07-24T03:10:24;8.00;;;5.28;;
17854;SDS011;9053;53.358;6.382;2022-07-24T03:12:54;4.95;;;4.20;;
17854;SDS011;9053;53.358;6.382;2022-07-24T03:15:24;4.45;;;4.05;;
17854;SDS011;9053;53.358;6.382;2022-07-24T03:17:54;4.57;;;3.88;;
17854;SDS011;9053;53.358;6.382;2022-07-24T03:20:25;5.47;;;4.97;;
17854;SDS011;9053;53.358;6.382;2022-07-24T03:23:00;5.60;;;4.80;;
17854;SDS011;9053;53.358;6.382;2022-07-24T03:25:30;4.72;;;4.18;;
17854;SDS011;9053;53.358;6.382;2022-07-24T03:27:59;4.65;;;4.10;;
17854;SDS011;9053;53.358;6.382;2022-07-24T03:30:29;4.80;;;4.30;;
17854;SDS011;9053;53.358;6.382;2022-07-24T03:32:59;5.15;;;4.50;;
17854;SDS011;9053;53.358;6.382;2022-07-24T03:35:29;4.57;;;4.18;;
17854;SDS011;9053;53.358;6.382;2022-07-24T03:38:01;4.10;;;3.58;;
17854;SDS011;9053;53.358;6.382;2022-07-24T03:40:31;6.03;;;5.22;;
17854;SDS011;9053;53.358;6.382;2022-07-24T03:43:00;5.25;;;4.18;;
17854;SDS011;9053;53.358;6.382;2022-07-24T03:45:30;5.03;;;4.32;;
17854;SDS011;9053;53.358;6.382;2022-07-24T03:48:00;4.25;;;3.85;;
17854;SDS011;9053;53.358;6.382;2022-07-24T03:50:30;4.05;;;3.75;;
17854;SDS011;9053;53.358;6.382;2022-07-24T03:53:03;4.35;;;3.95;;
17854;SDS011;9053;53.358;6.382;2022-07-24T03:55:36;4.63;;;4.22;;
17854;SDS011;9053;53.358;6.382;2022-07-24T03:58:05;3.90;;;3.60;;
17854;SDS011;9053;53.358;6.382;2022-07-24T04:00:35;4.55;;;4.15;;
17854;SDS011;9053;53.358;6.382;2022-07-24T04:03:05;4.70;;;4.20;;
17854;SDS011;9053;53.358;6.382;2022-07-24T04:05:35;4.78;;;4.28;;
17854;SDS011;9053;53.358;6.382;2022-07-24T04:08:19;5.05;;;4.45;;
17854;SDS011;9053;53.358;6.382;2022-07-24T04:10:49;6.25;;;5.07;;
17854;SDS011;9053;53.358;6.382;2022-07-24T04:13:23;5.22;;;4.72;;
17854;SDS011;9053;53.358;6.382;2022-07-24T04:15:53;4.90;;;4.40;;
17854;SDS011;9053;53.358;6.382;2022-07-24T04:18:24;5.25;;;4.75;;
17854;SDS011;9053;53.358;6.382;2022-07-24T04:20:54;5.00;;;4.60;;
17854;SDS011;9053;53.358;6.382;2022-07-24T04:23:26;5.65;;;4.80;;
17854;SDS011;9053;53.358;6.382;2022-07-24T04:25:56;5.72;;;4.95;;
17854;SDS011;9053;53.358;6.382;2022-07-24T04:28:27;5.72;;;4.95;;
17854;SDS011;9053;53.358;6.382;2022-07-24T04:30:56;5.70;;;4.88;;
17854;SDS011;9053;53.358;6.382;2022-07-24T04:33:26;4.78;;;4.30;;
17854;SDS011;9053;53.358;6.382;2022-07-24T04:35:56;5.95;;;5.03;;
17854;SDS011;9053;53.358;6.382;2022-07-24T04:38:28;5.22;;;4.57;;
17854;SDS011;9053;53.358;6.382;2022-07-24T04:40:58;6.15;;;5.38;;
17854;SDS011;9053;53.358;6.382;2022-07-24T04:43:28;4.55;;;4.07;;
17854;SDS011;9053;53.358;6.382;2022-07-24T04:45:58;5.43;;;4.47;;
17854;SDS011;9053;53.358;6.382;2022-07-24T04:48:28;5.55;;;4.88;;
17854;SDS011;9053;53.358;6.382;2022-07-24T04:50:58;4.75;;;4.35;;
17854;SDS011;9053;53.358;6.382;2022-07-24T04:53:30;4.65;;;4.15;;
17854;SDS011;9053;53.358;6.382;2022-07-24T04:56:00;4.90;;;4.40;;
17854;SDS011;9053;53.358;6.382;2022-07-24T04:58:30;5.80;;;4.75;;
17854;SDS011;9053;53.358;6.382;2022-07-24T05:01:00;5.45;;;4.65;;
17854;SDS011;9053;53.358;6.382;2022-07-24T05:03:30;5.50;;;4.80;;
17854;SDS011;9053;53.358;6.382;2022-07-24T05:05:59;5.55;;;4.80;;
17854;SDS011;9053;53.358;6.382;2022-07-24T05:08:32;4.85;;;4.45;;
17854;SDS011;9053;53.358;6.382;2022-07-24T05:11:01;5.47;;;4.97;;
17854;SDS011;9053;53.358;6.382;2022-07-24T05:13:31;5.22;;;4.78;;
17854;SDS011;9053;53.358;6.382;2022-07-24T05:16:01;5.85;;;5.25;;
17854;SDS011;9053;53.358;6.382;2022-07-24T05:18:31;5.28;;;4.78;;
17854;SDS011;9053;53.358;6.382;2022-07-24T05:21:01;4.80;;;4.32;;
17854;SDS011;9053;53.358;6.382;2022-07-24T05:23:33;6.50;;;5.85;;
17854;SDS011;9053;53.358;6.382;2022-07-24T05:26:03;4.80;;;4.35;;
17854;SDS011;9053;53.358;6.382;2022-07-24T05:28:33;6.65;;;6.00;;
17854;SDS011;9053;53.358;6.382;2022-07-24T05:31:02;6.40;;;5.47;;
17854;SDS011;9053;53.358;6.382;2022-07-24T05:33:34;5.50;;;4.97;;
17854;SDS011;9053;53.358;6.382;2022-07-24T05:36:04;5.43;;;4.80;;
17854;SDS011;9053;53.358;6.382;2022-07-24T05:38:36;5.97;;;5.03;;
17854;SDS011;9053;53.358;6.382;2022-07-24T05:41:06;5.90;;;5.22;;
17854;SDS011;9053;53.358;6.382;2022-07-24T05:43:36;5.88;;;5.28;;
17854;SDS011;9053;53.358;6.382;2022-07-24T05:46:06;6.20;;;5.60;;
17854;SDS011;9053;53.358;6.382;2022-07-24T05:48:43;5.80;;;5.18;;
17854;SDS011;9053;53.358;6.382;2022-07-24T05:51:13;6.93;;;5.47;;
17854;SDS011;9053;53.358;6.382;2022-07-24T05:53:46;5.50;;;5.00;;
17854;SDS011;9053;53.358;6.382;2022-07-24T05:56:15;6.20;;;5.22;;
17854;SDS011;9053;53.358;6.382;2022-07-24T05:58:45;6.40;;;5.53;;
17854;SDS011;9053;53.358;6.382;2022-07-24T06:01:16;4.72;;;4.30;;
17854;SDS011;9053;53.358;6.382;2022-07-24T06:03:46;7.93;;;6.80;;
17854;SDS011;9053;53.358;6.382;2022-07-24T06:06:16;6.18;;;5.50;;
17854;SDS011;9053;53.358;6.382;2022-07-24T06:08:48;6.75;;;5.28;;
17854;SDS011;9053;53.358;6.382;2022-07-24T06:11:18;5.95;;;5.45;;
17854;SDS011;9053;53.358;6.382;2022-07-24T06:13:49;6.50;;;5.75;;
17854;SDS011;9053;53.358;6.382;2022-07-24T06:16:22;6.82;;;6.22;;
17854;SDS011;9053;53.358;6.382;2022-07-24T06:18:52;7.05;;;6.32;;
17854;SDS011;9053;53.358;6.382;2022-07-24T06:21:22;6.72;;;5.88;;
17854;SDS011;9053;53.358;6.382;2022-07-24T06:23:55;7.10;;;6.40;;
17854;SDS011;9053;53.358;6.382;2022-07-24T06:26:25;7.30;;;6.53;;
17854;SDS011;9053;53.358;6.382;2022-07-24T06:29:04;5.53;;;5.03;;
17854;SDS011;9053;53.358;6.382;2022-07-24T06:31:45;7.82;;;6.63;;
17854;SDS011;9053;53.358;6.382;2022-07-24T06:34:14;7.57;;;6.78;;
17854;SDS011;9053;53.358;6.382;2022-07-24T06:36:46;6.38;;;5.78;;
17854;SDS011;9053;53.358;6.382;2022-07-24T06:39:19;6.82;;;6.22;;
17854;SDS011;9053;53.358;6.382;2022-07-24T06:41:48;7.03;;;6.25;;
17854;SDS011;9053;53.358;6.382;2022-07-24T06:44:18;8.25;;;7.45;;
17854;SDS011;9053;53.358;6.382;2022-07-24T06:46:49;8.27;;;7.45;;
17854;SDS011;9053;53.358;6.382;2022-07-24T06:49:19;6.68;;;6.03;;
17854;SDS011;9053;53.358;6.382;2022-07-24T06:51:49;5.80;;;5.30;;
17854;SDS011;9053;53.358;6.382;2022-07-24T06:54:23;8.68;;;6.95;;
17854;SDS011;9053;53.358;6.382;2022-07-24T06:56:52;7.38;;;6.60;;
17854;SDS011;9053;53.358;6.382;2022-07-24T06:59:22;7.80;;;7.05;;
17854;SDS011;9053;53.358;6.382;2022-07-24T07:01:52;12.90;;;10.88;;
17854;SDS011;9053;53.358;6.382;2022-07-24T07:04:22;7.40;;;6.78;;
17854;SDS011;9053;53.358;6.382;2022-07-24T07:06:52;8.10;;;7.05;;
17854;SDS011;9053;53.358;6.382;2022-07-24T07:09:25;8.15;;;7.10;;
17854;SDS011;9053;53.358;6.382;2022-07-24T07:11:54;8.20;;;6.57;;
17854;SDS011;9053;53.358;6.382;2022-07-24T07:14:24;6.65;;;5.95;;
17854;SDS011;9053;53.358;6.382;2022-07-24T07:16:54;6.93;;;6.32;;
17854;SDS011;9053;53.358;6.382;2022-07-24T07:19:24;6.40;;;5.80;;
17854;SDS011;9053;53.358;6.382;2022-07-24T07:21:54;6.60;;;5.45;;
17854;SDS011;9053;53.358;6.382;2022-07-24T07:24:27;7.13;;;6.28;;
17854;SDS011;9053;53.358;6.382;2022-07-24T07:26:57;5.78;;;5.25;;
17854;SDS011;9053;53.358;6.382;2022-07-24T07:29:26;5.80;;;5.20;;
17854;SDS011;9053;53.358;6.382;2022-07-24T07:31:56;7.75;;;6.95;;
17854;SDS011;9053;53.358;6.382;2022-07-24T07:34:26;7.93;;;5.65;;
17854;SDS011;9053;53.358;6.382;2022-07-24T07:36:56;6.38;;;5.78;;
17854;SDS011;9053;53.358;6.382;2022-07-24T07:39:28;6.05;;;5.45;;
17854;SDS011;9053;53.358;6.382;2022-07-24T07:41:58;5.57;;;4.97;;
17854;SDS011;9053;53.358;6.382;2022-07-24T07:44:28;6.50;;;5.90;;
17854;SDS011;9053;53.358;6.382;2022-07-24T07:46:58;5.30;;;4.82;;
17854;SDS011;9053;53.358;6.382;2022-07-24T07:49:27;7.15;;;5.93;;
17854;SDS011;9053;53.358;6.382;2022-07-24T07:51:57;6.40;;;5.47;;
17854;SDS011;9053;53.358;6.382;2022-07-24T07:54:30;6.68;;;5.45;;
17854;SDS011;9053;53.358;6.382;2022-07-24T07:57:00;5.88;;;5.20;;
17854;SDS011;9053;53.358;6.382;2022-07-24T07:59:30;5.30;;;4.82;;
17854;SDS011;9053;53.358;6.382;2022-07-24T08:01:59;5.28;;;4.50;;
17854;SDS011;9053;53.358;6.382;2022-07-24T08:04:29;4.93;;;4.50;;
17854;SDS011;9053;53.358;6.382;2022-07-24T08:06:59;5.15;;;4.65;;
17854;SDS011;9053;53.358;6.382;2022-07-24T08:09:35;6.80;;;5.20;;
17854;SDS011;9053;53.358;6.382;2022-07-24T08:12:06;5.38;;;4.88;;
17854;SDS011;9053;53.358;6.382;2022-07-24T08:14:41;5.78;;;5.18;;
17854;SDS011;9053;53.358;6.382;2022-07-24T08:17:11;5.32;;;4.82;;
17854;SDS011;9053;53.358;6.382;2022-07-24T08:19:41;5.15;;;4.65;;
17854;SDS011;9053;53.358;6.382;2022-07-24T08:22:12;5.18;;;4.57;;
17854;SDS011;9053;53.358;6.382;2022-07-24T08:24:44;5.00;;;4.30;;
17854;SDS011;9053;53.358;6.382;2022-07-24T08:27:14;5.18;;;4.53;;
17854;SDS011;9053;53.358;6.382;2022-07-24T08:29:44;4.90;;;4.40;;
17854;SDS011;9053;53.358;6.382;2022-07-24T08:32:14;4.78;;;4.03;;
17854;SDS011;9053;53.358;6.382;2022-07-24T08:34:43;4.40;;;4.00;;
17854;SDS011;9053;53.358;6.382;2022-07-24T08:37:13;4.75;;;3.97;;
17854;SDS011;9053;53.358;6.382;2022-07-24T08:39:45;4.50;;;4.10;;
17854;SDS011;9053;53.358;6.382;2022-07-24T08:42:15;5.28;;;4.43;;
17854;SDS011;9053;53.358;6.382;2022-07-24T08:44:45;4.40;;;4.00;;
17854;SDS011;9053;53.358;6.382;2022-07-24T08:47:15;5.15;;;4.50;;
17854;SDS011;9053;53.358;6.382;2022-07-24T08:49:48;4.97;;;4.35;;
17854;SDS011;9053;53.358;6.382;2022-07-24T08:52:22;5.72;;;4.38;;
17854;SDS011;9053;53.358;6.382;2022-07-24T08:54:56;5.68;;;4.93;;
17854;SDS011;9053;53.358;6.382;2022-07-24T08:57:26;5.82;;;4.18;;
17854;SDS011;9053;53.358;6.382;2022-07-24T08:59:55;6.85;;;4.30;;
17854;SDS011;9053;53.358;6.382;2022-07-24T09:02:26;4.78;;;4.38;;
17854;SDS011;9053;53.358;6.382;2022-07-24T09:05:00;4.53;;;4.13;;
17854;SDS011;9053;53.358;6.382;2022-07-24T09:07:30;4.55;;;3.75;;
17854;SDS011;9053;53.358;6.382;2022-07-24T09:10:04;6.32;;;4.18;;
17854;SDS011;9053;53.358;6.382;2022-07-24T09:12:36;4.20;;;3.55;;
17854;SDS011;9053;53.358;6.382;2022-07-24T09:15:12;5.10;;;3.78;;
17854;SDS011;9053;53.358;6.382;2022-07-24T09:17:49;4.40;;;3.97;;
17854;SDS011;9053;53.358;6.382;2022-07-24T09:20:21;4.40;;;3.80;;
17854;SDS011;9053;53.358;6.382;2022-07-24T09:22:51;4.35;;;3.85;;
17854;SDS011;9053;53.358;6.382;2022-07-24T09:25:24;5.80;;;3.65;;
17854;SDS011;9053;53.358;6.382;2022-07-24T09:27:55;4.97;;;3.60;;
17854;SDS011;9053;53.358;6.382;2022-07-24T09:30:27;4.28;;;3.88;;
17854;SDS011;9053;53.358;6.382;2022-07-24T09:33:00;5.65;;;4.78;;
17854;SDS011;9053;53.358;6.382;2022-07-24T09:35:31;7.03;;;5.00;;
17854;SDS011;9053;53.358;6.382;2022-07-24T09:38:04;4.80;;;3.67;;
17854;SDS011;9053;53.358;6.382;2022-07-24T09:40:38;4.97;;;3.72;;
17854;SDS011;9053;53.358;6.382;2022-07-24T09:43:17;4.28;;;3.50;;
17854;SDS011;9053;53.358;6.382;2022-07-24T09:45:50;5.30;;;3.78;;
17854;SDS011;9053;53.358;6.382;2022-07-24T09:48:23;4.05;;;3.60;;
17854;SDS011;9053;53.358;6.382;2022-07-24T09:50:56;4.07;;;3.33;;
17854;SDS011;9053;53.358;6.382;2022-07-24T09:53:28;4.18;;;3.35;;
17854;SDS011;9053;53.358;6.382;2022-07-24T09:56:10;4.97;;;3.08;;
17854;SDS011;9053;53.358;6.382;2022-07-24T09:58:47;4.10;;;3.50;;
17854;SDS011;9053;53.358;6.382;2022-07-24T10:01:19;4.18;;;3.10;;
17854;SDS011;9053;53.358;6.382;2022-07-24T10:03:51;4.43;;;3.25;;
17854;SDS011;9053;53.358;6.382;2022-07-24T10:06:24;3.58;;;3.28;;
17854;SDS011;9053;53.358;6.382;2022-07-24T10:08:55;3.30;;;2.60;;
17854;SDS011;9053;53.358;6.382;2022-07-24T10:11:31;4.25;;;3.85;;
17854;SDS011;9053;53.358;6.382;2022-07-24T10:14:04;4.95;;;3.80;;
17854;SDS011;9053;53.358;6.382;2022-07-24T10:16:34;5.10;;;3.90;;
17854;SDS011;9053;53.358;6.382;2022-07-24T10:19:33;6.07;;;3.50;;
17854;SDS011;9053;53.358;6.382;2022-07-24T10:22:09;3.95;;;3.65;;
17854;SDS011;9053;53.358;6.382;2022-07-24T10:24:47;3.95;;;3.03;;
17854;SDS011;9053;53.358;6.382;2022-07-24T10:27:28;4.57;;;2.97;;
17854;SDS011;9053;53.358;6.382;2022-07-24T10:30:00;5.43;;;3.40;;
17854;SDS011;9053;53.358;6.382;2022-07-24T10:32:33;5.72;;;3.60;;
17854;SDS011;9053;53.358;6.382;2022-07-24T10:35:06;3.50;;;3.15;;
17854;SDS011;9053;53.358;6.382;2022-07-24T10:37:47;4.85;;;3.28;;
17854;SDS011;9053;53.358;6.382;2022-07-24T10:40:23;4.18;;;3.35;;
17854;SDS011;9053;53.358;6.382;2022-07-24T10:43:14;3.75;;;3.25;;
17854;SDS011;9053;53.358;6.382;2022-07-24T10:45:46;3.67;;;3.22;;
17854;SDS011;9053;53.358;6.382;2022-07-24T10:48:36;3.40;;;3.10;;
17854;SDS011;9053;53.358;6.382;2022-07-24T10:51:15;4.45;;;3.78;;
17854;SDS011;9053;53.358;6.382;2022-07-24T10:53:46;4.45;;;3.60;;
17854;SDS011;9053;53.358;6.382;2022-07-24T10:56:19;4.00;;;3.50;;
17854;SDS011;9053;53.358;6.382;2022-07-24T10:59:04;5.82;;;3.45;;
17854;SDS011;9053;53.358;6.382;2022-07-24T11:01:37;6.85;;;3.83;;
17854;SDS011;9053;53.358;6.382;2022-07-24T11:04:26;3.35;;;3.03;;
17854;SDS011;9053;53.358;6.382;2022-07-24T11:07:07;3.20;;;2.80;;
17854;SDS011;9053;53.358;6.382;2022-07-24T11:12:28;3.40;;;2.80;;
17854;SDS011;9053;53.358;6.382;2022-07-24T11:15:08;4.15;;;3.10;;
17854;SDS011;9053;53.358;6.382;2022-07-24T11:17:51;2.72;;;2.47;;
17854;SDS011;9053;53.358;6.382;2022-07-24T11:20:21;3.05;;;2.75;;
17854;SDS011;9053;53.358;6.382;2022-07-24T11:22:52;3.45;;;2.80;;
17854;SDS011;9053;53.358;6.382;2022-07-24T11:25:24;3.05;;;2.50;;
17854;SDS011;9053;53.358;6.382;2022-07-24T11:27:55;5.85;;;3.00;;
17854;SDS011;9053;53.358;6.382;2022-07-24T11:30:29;4.65;;;3.38;;
17854;SDS011;9053;53.358;6.382;2022-07-24T11:32:59;3.22;;;2.70;;
17854;SDS011;9053;53.358;6.382;2022-07-24T11:35:30;3.38;;;2.88;;
17854;SDS011;9053;53.358;6.382;2022-07-24T11:38:03;3.65;;;2.60;;
17854;SDS011;9053;53.358;6.382;2022-07-24T11:40:34;2.78;;;2.55;;
17854;SDS011;9053;53.358;6.382;2022-07-24T11:43:05;2.60;;;2.40;;
17854;SDS011;9053;53.358;6.382;2022-07-24T11:45:39;5.57;;;2.95;;
17854;SDS011;9053;53.358;6.382;2022-07-24T11:48:20;3.63;;;2.50;;
17854;SDS011;9053;53.358;6.382;2022-07-24T11:51:02;3.17;;;2.63;;
17854;SDS011;9053;53.358;6.382;2022-07-24T11:53:52;5.30;;;3.47;;
17854;SDS011;9053;53.358;6.382;2022-07-24T11:56:22;3.88;;;2.78;;
17854;SDS011;9053;53.358;6.382;2022-07-24T11:58:52;2.95;;;2.63;;
17854;SDS011;9053;53.358;6.382;2022-07-24T12:01:25;3.70;;;2.80;;
17854;SDS011;9053;53.358;6.382;2022-07-24T12:03:56;4.95;;;3.05;;
17854;SDS011;9053;53.358;6.382;2022-07-24T12:06:28;3.78;;;2.70;;
17854;SDS011;9053;53.358;6.382;2022-07-24T12:09:04;4.22;;;2.70;;
17854;SDS011;9053;53.358;6.382;2022-07-24T12:11:35;2.65;;;2.35;;
17854;SDS011;9053;53.358;6.382;2022-07-24T12:14:05;3.97;;;2.50;;
17854;SDS011;9053;53.358;6.382;2022-07-24T12:16:50;2.60;;;2.40;;
17854;SDS011;9053;53.358;6.382;2022-07-24T12:19:22;4.63;;;2.95;;
17854;SDS011;9053;53.358;6.382;2022-07-24T12:21:53;2.97;;;2.55;;
17854;SDS011;9053;53.358;6.382;2022-07-24T12:24:24;3.00;;;2.65;;
17854;SDS011;9053;53.358;6.382;2022-07-24T12:26:58;3.20;;;2.85;;
17854;SDS011;9053;53.358;6.382;2022-07-24T12:29:28;3.08;;;2.78;;
17854;SDS011;9053;53.358;6.382;2022-07-24T12:34:47;4.57;;;2.90;;
17854;SDS011;9053;53.358;6.382;2022-07-24T12:37:38;3.47;;;2.83;;
17854;SDS011;9053;53.358;6.382;2022-07-24T12:40:08;2.90;;;2.60;;
17854;SDS011;9053;53.358;6.382;2022-07-24T12:42:55;3.00;;;2.80;;
17854;SDS011;9053;53.358;6.382;2022-07-24T12:45:26;6.90;;;3.25;;
17854;SDS011;9053;53.358;6.382;2022-07-24T12:48:09;4.57;;;2.60;;
17854;SDS011;9053;53.358;6.382;2022-07-24T12:51:02;3.03;;;2.58;;
17854;SDS011;9053;53.358;6.382;2022-07-24T12:53:39;3.30;;;2.58;;
17854;SDS011;9053;53.358;6.382;2022-07-24T12:56:11;2.92;;;2.72;;
17854;SDS011;9053;53.358;6.382;2022-07-24T12:58:56;3.50;;;2.60;;
17854;SDS011;9053;53.358;6.382;2022-07-24T13:01:43;3.38;;;2.67;;
17854;SDS011;9053;53.358;6.382;2022-07-24T13:04:18;3.88;;;2.88;;
17854;SDS011;9053;53.358;6.382;2022-07-24T13:06:50;3.47;;;2.60;;
17854;SDS011;9053;53.358;6.382;2022-07-24T13:09:21;4.35;;;2.78;;
17854;SDS011;9053;53.358;6.382;2022-07-24T13:11:52;5.03;;;2.63;;
17854;SDS011;9053;53.358;6.382;2022-07-24T13:14:24;3.30;;;2.70;;
17854;SDS011;9053;53.358;6.382;2022-07-24T13:17:01;2.83;;;2.53;;
17854;SDS011;9053;53.358;6.382;2022-07-24T13:19:35;2.90;;;2.65;;
17854;SDS011;9053;53.358;6.382;2022-07-24T13:22:06;2.72;;;2.53;;
17854;SDS011;9053;53.358;6.382;2022-07-24T13:24:36;2.80;;;2.60;;
17854;SDS011;9053;53.358;6.382;2022-07-24T13:27:08;3.35;;;2.38;;
17854;SDS011;9053;53.358;6.382;2022-07-24T13:29:39;3.53;;;2.05;;
17854;SDS011;9053;53.358;6.382;2022-07-24T13:32:09;2.90;;;2.60;;
17854;SDS011;9053;53.358;6.382;2022-07-24T13:34:43;3.75;;;2.60;;
17854;SDS011;9053;53.358;6.382;2022-07-24T13:37:13;3.88;;;2.45;;
17854;SDS011;9053;53.358;6.382;2022-07-24T13:39:43;2.85;;;2.17;;
17854;SDS011;9053;53.358;6.382;2022-07-24T13:42:13;3.72;;;2.40;;
17854;SDS011;9053;53.358;6.382;2022-07-24T13:44:43;2.53;;;2.33;;
17854;SDS011;9053;53.358;6.382;2022-07-24T13:47:13;2.83;;;2.20;;
17854;SDS011;9053;53.358;6.382;2022-07-24T13:49:45;2.65;;;2.20;;
17854;SDS011;9053;53.358;6.382;2022-07-24T13:52:15;2.30;;;2.10;;
17854;SDS011;9053;53.358;6.382;2022-07-24T13:54:44;2.47;;;2.28;;
17854;SDS011;9053;53.358;6.382;2022-07-24T13:57:21;2.78;;;2.30;;
17854;SDS011;9053;53.358;6.382;2022-07-24T13:59:51;3.15;;;2.10;;
17854;SDS011;9053;53.358;6.382;2022-07-24T14:02:21;4.32;;;2.33;;
17854;SDS011;9053;53.358;6.382;2022-07-24T14:04:53;2.42;;;2.13;;
17854;SDS011;9053;53.358;6.382;2022-07-24T14:07:23;3.15;;;2.47;;
17854;SDS011;9053;53.358;6.382;2022-07-24T14:09:53;2.30;;;2.10;;
17854;SDS011;9053;53.358;6.382;2022-07-24T14:12:23;2.50;;;2.13;;
17854;SDS011;9053;53.358;6.382;2022-07-24T14:14:54;2.70;;;2.17;;
17854;SDS011;9053;53.358;6.382;2022-07-24T14:17:24;3.88;;;2.63;;
17854;SDS011;9053;53.358;6.382;2022-07-24T14:19:57;2.67;;;2.38;;
17854;SDS011;9053;53.358;6.382;2022-07-24T14:22:26;3.35;;;2.50;;
17854;SDS011;9053;53.358;6.382;2022-07-24T14:24:56;2.42;;;1.98;;
17854;SDS011;9053;53.358;6.382;2022-07-24T14:27:26;2.72;;;2.53;;
17854;SDS011;9053;53.358;6.382;2022-07-24T14:29:57;4.38;;;2.72;;
17854;SDS011;9053;53.358;6.382;2022-07-24T14:32:26;3.00;;;2.55;;
17854;SDS011;9053;53.358;6.382;2022-07-24T14:34:59;2.92;;;2.40;;
17854;SDS011;9053;53.358;6.382;2022-07-24T14:37:33;2.83;;;2.60;;
17854;SDS011;9053;53.358;6.382;2022-07-24T14:40:04;3.58;;;2.78;;
17854;SDS011;9053;53.358;6.382;2022-07-24T14:42:36;2.42;;;2.22;;
17854;SDS011;9053;53.358;6.382;2022-07-24T14:45:06;2.20;;;2.00;;
17854;SDS011;9053;53.358;6.382;2022-07-24T14:47:36;2.92;;;2.70;;
17854;SDS011;9053;53.358;6.382;2022-07-24T14:50:10;3.05;;;2.40;;
17854;SDS011;9053;53.358;6.382;2022-07-24T14:52:39;3.40;;;2.42;;
17854;SDS011;9053;53.358;6.382;2022-07-24T14:55:09;2.85;;;2.28;;
17854;SDS011;9053;53.358;6.382;2022-07-24T14:57:39;2.33;;;2.08;;
17854;SDS011;9053;53.358;6.382;2022-07-24T15:00:10;2.60;;;2.13;;
17854;SDS011;9053;53.358;6.382;2022-07-24T15:02:41;2.63;;;2.08;;
17854;SDS011;9053;53.358;6.382;2022-07-24T15:05:13;2.30;;;2.10;;
17854;SDS011;9053;53.358;6.382;2022-07-24T15:07:43;2.40;;;2.20;;
17854;SDS011;9053;53.358;6.382;2022-07-24T15:10:13;2.80;;;2.20;;
17854;SDS011;9053;53.358;6.382;2022-07-24T15:12:43;2.70;;;2.50;;
17854;SDS011;9053;53.358;6.382;2022-07-24T15:15:13;2.83;;;2.22;;
17854;SDS011;9053;53.358;6.382;2022-07-24T15:17:44;2.40;;;2.20;;
17854;SDS011;9053;53.358;6.382;2022-07-24T15:20:18;2.72;;;2.10;;
17854;SDS011;9053;53.358;6.382;2022-07-24T15:22:47;2.30;;;2.10;;
17854;SDS011;9053;53.358;6.382;2022-07-24T15:25:18;2.42;;;2.20;;
17854;SDS011;9053;53.358;6.382;2022-07-24T15:27:47;2.72;;;2.53;;
17854;SDS011;9053;53.358;6.382;2022-07-24T15:30:18;2.47;;;2.22;;
17854;SDS011;9053;53.358;6.382;2022-07-24T15:32:55;2.38;;;2.10;;
17854;SDS011;9053;53.358;6.382;2022-07-24T15:35:33;2.67;;;2.10;;